createdAt,value
2022-09-11T00:01:36.579Z,100660.91
2022-09-11T00:04:04.201Z,100665.19
2022-09-11T00:06:31.198Z,100665.69
2022-09-11T00:09:04.505Z,100669.06
2022-09-11T00:11:42.048Z,100663.94
2022-09-11T00:14:13.771Z,100660.75
2022-09-11T00:16:46.007Z,100667.16
2022-09-11T00:19:19.908Z,100663.84
2022-09-11T00:21:50.404Z,100664.03
2022-09-11T00:24:17.730Z,100660.53
2022-09-11T00:26:47.388Z,100669.81
2022-09-11T00:29:14.371Z,100657.28
2022-09-11T00:31:41.785Z,100662.19
2022-09-11T00:34:09.518Z,100658.72
2022-09-11T00:36:37.572Z,100656.66
2022-09-11T00:39:05.012Z,100660.53
2022-09-11T00:41:40.003Z,100659.91
2022-09-11T00:44:28.314Z,100659.91
2022-09-11T00:47:03.173Z,100656.63
2022-09-11T00:49:39.679Z,100662.19
2022-09-11T00:52:31.039Z,100667.44
2022-09-11T00:55:04.949Z,100668.00
2022-09-11T00:58:01.777Z,100669.09
2022-09-11T01:00:28.696Z,100665.78
2022-09-11T01:02:56.792Z,100672.56
2022-09-11T01:05:28.036Z,100671.59
2022-09-11T01:07:56.551Z,100669.47
2022-09-11T01:11:07.295Z,100683.50
2022-09-11T01:14:34.513Z,100677.34
2022-09-11T01:17:20.398Z,100680.47
2022-09-11T01:20:33.282Z,100683.34
2022-09-11T01:23:31.564Z,100678.34
2022-09-11T01:26:32.603Z,100676.78
2022-09-11T01:29:25.422Z,100674.56
2022-09-11T01:32:11.705Z,100679.00
2022-09-11T01:34:55.534Z,100680.25
2022-09-11T01:37:52.031Z,100681.66
2022-09-11T01:40:36.699Z,100684.88
2022-09-11T01:43:17.208Z,100685.81
2022-09-11T01:45:47.201Z,100685.31
2022-09-11T01:48:27.025Z,100691.97
2022-09-11T01:50:56.971Z,100688.25
2022-09-11T01:53:33.432Z,100698.66
2022-09-11T01:56:11.011Z,100684.53
2022-09-11T01:58:39.536Z,100686.69
2022-09-11T02:01:23.139Z,100688.56
2022-09-11T02:04:37.704Z,100684.53
2022-09-11T02:07:16.904Z,100696.16
2022-09-11T02:10:03.153Z,100684.44
2022-09-11T02:13:36.992Z,100686.41
2022-09-11T02:16:52.747Z,100683.09
2022-09-11T02:19:29.863Z,100682.97
2022-09-11T02:22:00.243Z,100686.69
2022-09-11T02:24:28.411Z,100689.78
2022-09-11T02:27:08.419Z,100697.56
2022-09-11T02:29:36.982Z,100693.94
2022-09-11T02:32:04.613Z,100694.22
2022-09-11T02:34:39.904Z,100690.75
2022-09-11T02:37:41.940Z,100695.03
2022-09-11T02:40:51.591Z,100697.81
2022-09-11T02:43:42.947Z,100706.13
2022-09-11T02:47:05.515Z,100708.59
2022-09-11T02:50:10.385Z,100711.78
2022-09-11T02:53:10.553Z,100701.97
2022-09-11T02:56:07.982Z,100706.69
2022-09-11T02:58:46.313Z,100708.34
2022-09-11T03:01:13.431Z,100705.00
2022-09-11T03:03:46.439Z,100712.75
2022-09-11T03:06:27.290Z,100712.50
2022-09-11T03:08:54.356Z,100716.63
2022-09-11T03:11:21.460Z,100720.84
2022-09-11T03:13:48.457Z,100718.59
2022-09-11T03:16:15.450Z,100724.41
2022-09-11T03:18:42.416Z,100712.47
2022-09-11T03:21:11.371Z,100720.81
2022-09-11T03:23:38.616Z,100721.91
2022-09-11T03:26:05.631Z,100727.00
2022-09-11T03:28:34.090Z,100729.69
2022-09-11T03:31:01.130Z,100730.22
2022-09-11T03:33:28.144Z,100731.63
2022-09-11T03:35:55.207Z,100741.88
2022-09-11T03:38:22.198Z,100740.59
2022-09-11T03:40:49.273Z,100752.22
2022-09-11T03:43:16.704Z,100749.91
2022-09-11T03:45:44.772Z,100755.94
2022-09-11T03:48:11.916Z,100754.78
2022-09-11T03:50:38.864Z,100761.06
2022-09-11T03:53:05.857Z,100762.03
2022-09-11T03:55:33.194Z,100766.44
2022-09-11T03:58:00.399Z,100763.69
2022-09-11T04:00:27.741Z,100765.78
2022-09-11T04:02:58.106Z,100766.25
2022-09-11T04:05:25.333Z,100765.28
2022-09-11T04:07:55.089Z,100765.41
2022-09-11T04:10:22.372Z,100766.34
2022-09-11T04:12:49.341Z,100763.44
2022-09-11T04:15:16.407Z,100768.97
2022-09-11T04:17:43.505Z,100774.94
2022-09-11T04:20:10.929Z,100761.50
2022-09-11T04:22:39.327Z,100768.44
2022-09-11T04:25:07.611Z,100771.47
2022-09-11T04:27:34.675Z,100772.47
2022-09-11T04:30:01.589Z,100769.72
2022-09-11T04:32:29.214Z,100773.03
2022-09-11T04:34:56.326Z,100767.06
2022-09-11T04:37:23.305Z,100772.88
2022-09-11T04:39:50.490Z,100765.94
2022-09-11T04:42:17.560Z,100773.72
2022-09-11T04:44:44.484Z,100776.97
2022-09-11T04:47:11.434Z,100780.06
2022-09-11T04:49:38.393Z,100776.34
2022-09-11T04:52:07.223Z,100779.81
2022-09-11T04:54:34.217Z,100778.84
2022-09-11T04:57:04.294Z,100773.97
2022-09-11T04:59:31.263Z,100777.56
2022-09-11T05:01:58.258Z,100786.72
2022-09-11T05:04:26.538Z,100787.84
2022-09-11T05:06:53.698Z,100781.16
2022-09-11T05:09:20.823Z,100785.59
2022-09-11T05:11:48.297Z,100789.06
2022-09-11T05:14:15.327Z,100783.38
2022-09-11T05:16:43.713Z,100786.16
2022-09-11T05:19:11.035Z,100792.53
2022-09-11T05:21:38.264Z,100789.50
2022-09-11T05:24:05.312Z,100800.03
2022-09-11T05:26:37.131Z,100807.22
2022-09-11T05:29:14.968Z,100814.56
2022-09-11T05:31:42.594Z,100814.31
2022-09-11T05:34:09.804Z,100813.88
2022-09-11T05:36:36.942Z,100822.88
2022-09-11T05:39:04.467Z,100817.75
2022-09-11T05:41:31.441Z,100825.78
2022-09-11T05:43:59.175Z,100832.72
2022-09-11T05:46:26.325Z,100841.44
2022-09-11T05:48:53.645Z,100845.03
2022-09-11T05:51:22.307Z,100860.13
2022-09-11T05:53:54.420Z,100853.34
2022-09-11T05:56:26.145Z,100856.00
2022-09-11T05:58:53.312Z,100853.78
2022-09-11T06:01:24.917Z,100858.34
2022-09-11T06:03:52.862Z,100868.72
2022-09-11T06:06:22.923Z,100874.53
2022-09-11T06:08:51.749Z,100866.91
2022-09-11T06:11:20.764Z,100873.41
2022-09-11T06:13:49.202Z,100876.00
2022-09-11T06:16:23.136Z,100878.25
2022-09-11T06:18:53.035Z,100883.91
2022-09-11T06:21:24.260Z,100890.84
2022-09-11T06:23:53.162Z,100896.13
2022-09-11T06:26:26.549Z,100886.31
2022-09-11T06:28:54.281Z,100889.75
2022-09-11T06:31:25.766Z,100894.75
2022-09-11T06:33:56.074Z,100890.97
2022-09-11T06:36:32.561Z,100889.59
2022-09-11T06:38:59.636Z,100895.41
2022-09-11T06:41:28.170Z,100898.19
2022-09-11T06:43:55.295Z,100909.13
2022-09-11T06:46:24.977Z,100905.50
2022-09-11T06:48:53.774Z,100908.47
2022-09-11T06:51:23.182Z,100904.41
2022-09-11T06:53:58.095Z,100904.91
2022-09-11T06:56:25.736Z,100911.44
2022-09-11T06:58:52.885Z,100906.47
2022-09-11T07:01:22.239Z,100906.03
2022-09-11T07:03:53.679Z,100909.28
2022-09-11T07:06:27.615Z,100896.41
2022-09-11T07:09:01.558Z,100905.13
2022-09-11T07:11:32.364Z,100899.88
2022-09-11T07:14:05.813Z,100897.03
2022-09-11T07:16:33.782Z,100894.19
2022-09-11T07:19:01.377Z,100894.94
2022-09-11T07:21:28.822Z,100892.91
2022-09-11T07:24:00.024Z,100893.09
2022-09-11T07:26:29.487Z,100900.78
2022-09-11T07:28:58.305Z,100900.72
2022-09-11T07:31:30.281Z,100896.94
2022-09-11T07:33:57.593Z,100899.59
2022-09-11T07:36:28.731Z,100908.41
2022-09-11T07:38:56.422Z,100903.53
2022-09-11T07:41:27.931Z,100902.22
2022-09-11T07:44:00.203Z,100905.63
2022-09-11T07:46:29.858Z,100914.25
2022-09-11T07:48:57.271Z,100900.72
2022-09-11T07:51:25.666Z,100901.31
2022-09-11T07:53:54.304Z,100910.00
2022-09-11T07:56:25.607Z,100916.69
2022-09-11T07:58:55.105Z,100918.34
2022-09-11T08:01:33.213Z,100919.88
2022-09-11T08:04:07.270Z,100926.28
2022-09-11T08:06:37.472Z,100930.19
2022-09-11T08:09:14.698Z,100925.72
2022-09-11T08:11:48.815Z,100926.53
2022-09-11T08:14:17.601Z,100924.84
2022-09-11T08:16:45.272Z,100934.84
2022-09-11T08:19:19.571Z,100933.47
2022-09-11T08:21:47.761Z,100942.75
2022-09-11T08:24:17.109Z,100940.34
2022-09-11T08:26:48.723Z,100946.31
2022-09-11T08:29:16.309Z,100950.28
2022-09-11T08:31:43.837Z,100950.34
2022-09-11T08:34:11.118Z,100952.59
2022-09-11T08:36:38.649Z,100949.78
2022-09-11T08:39:05.769Z,100969.91
2022-09-11T08:41:53.637Z,100964.09
2022-09-11T08:44:30.984Z,100960.75
2022-09-11T08:47:16.505Z,100968.44
2022-09-11T08:49:55.186Z,100966.66
2022-09-11T08:52:22.303Z,100964.75
2022-09-11T08:54:50.543Z,100971.97
2022-09-11T08:57:48.859Z,100966.31
2022-09-11T09:00:32.046Z,100961.41
2022-09-11T09:03:41.985Z,100967.06
2022-09-11T09:07:01.456Z,100969.09
2022-09-11T09:10:07.724Z,100966.75
2022-09-11T09:13:08.458Z,100970.63
2022-09-11T09:16:05.146Z,100975.88
2022-09-11T09:18:48.814Z,100978.56
2022-09-11T09:21:38.545Z,100977.78
2022-09-11T09:24:21.185Z,100975.69
2022-09-11T09:26:53.356Z,100978.75
2022-09-11T09:29:36.036Z,100989.34
2022-09-11T09:32:32.328Z,100978.91
2022-09-11T09:35:10.817Z,100972.09
2022-09-11T09:37:41.702Z,100976.31
2022-09-11T09:40:10.917Z,100986.19
2022-09-11T09:43:01.962Z,100985.25
2022-09-11T09:45:43.754Z,100979.81
2022-09-11T09:48:12.153Z,100990.75
2022-09-11T09:50:43.900Z,100981.84
2022-09-11T09:53:48.462Z,100986.59
2022-09-11T09:56:19.228Z,100982.53
2022-09-11T09:59:03.021Z,100985.47
2022-09-11T10:01:48.287Z,100985.47
2022-09-11T10:04:27.996Z,100982.66
2022-09-11T10:07:11.339Z,100987.81
2022-09-11T10:10:03.585Z,100988.97
2022-09-11T10:12:34.781Z,101000.75
2022-09-11T10:15:03.935Z,100991.09
2022-09-11T10:17:33.329Z,100996.63
2022-09-11T10:20:18.558Z,100996.75
2022-09-11T10:22:46.354Z,100998.41
2022-09-11T10:25:27.842Z,100995.03
2022-09-11T10:28:17.319Z,101010.25
2022-09-11T10:30:59.250Z,101012.41
2022-09-11T10:33:38.383Z,101000.56
2022-09-11T10:36:09.933Z,100998.22
2022-09-11T10:38:48.126Z,101008.19
2022-09-11T10:41:22.642Z,101008.06
2022-09-11T10:44:12.003Z,101013.88
2022-09-11T10:46:41.953Z,101014.91
2022-09-11T10:49:23.279Z,101008.78
2022-09-11T10:52:16.431Z,101009.97
2022-09-11T10:55:15.732Z,101014.69
2022-09-11T10:57:52.559Z,101013.03
2022-09-11T11:00:30.094Z,101016.59
2022-09-11T11:03:06.237Z,101008.44
2022-09-11T11:05:54.979Z,100998.75
2022-09-11T11:09:01.890Z,101009.34
2022-09-11T11:12:09.754Z,101005.72
2022-09-11T11:15:53.354Z,100995.97
2022-09-11T11:18:50.138Z,100991.81
2022-09-11T11:22:08.882Z,101003.72
2022-09-11T11:25:03.273Z,101003.78
2022-09-11T11:28:11.755Z,100994.50
2022-09-11T11:30:51.436Z,101000.75
2022-09-11T11:33:42.462Z,100997.41
2022-09-11T11:36:40.862Z,100990.31
2022-09-11T11:39:50.143Z,100997.59
2022-09-11T11:42:31.226Z,100996.31
2022-09-11T11:45:21.646Z,100988.88
2022-09-11T11:47:51.334Z,100996.16
2022-09-11T11:50:45.605Z,100991.22
2022-09-11T11:53:19.732Z,100993.41
2022-09-11T11:56:40.721Z,100990.69
2022-09-11T11:59:20.432Z,100992.63
2022-09-11T12:02:09.662Z,100994.94
2022-09-11T12:04:55.708Z,101000.09
2022-09-11T12:07:27.575Z,100994.38
2022-09-11T12:09:57.432Z,100995.59
2022-09-11T12:12:29.430Z,100996.09
2022-09-11T12:15:10.239Z,100999.78
2022-09-11T12:17:39.908Z,100999.47
2022-09-11T12:20:43.482Z,100996.91
2022-09-11T12:23:54.862Z,101010.44
2022-09-11T12:26:27.469Z,100993.69
2022-09-11T12:29:13.054Z,101009.94
2022-09-11T12:31:51.749Z,101002.94
2022-09-11T12:34:41.593Z,101002.34
2022-09-11T12:37:25.214Z,101003.78
2022-09-11T12:40:05.747Z,101000.81
2022-09-11T12:42:32.645Z,101003.59
2022-09-11T12:45:00.086Z,100997.91
2022-09-11T12:47:39.687Z,100994.19
2022-09-11T12:50:12.197Z,100992.31
2022-09-11T12:52:45.246Z,100999.84
2022-09-11T12:55:50.899Z,101003.63
2022-09-11T12:58:18.832Z,101007.28
2022-09-11T13:01:11.040Z,101009.31
2022-09-11T13:03:49.892Z,101009.78
2022-09-11T13:06:17.404Z,101003.25
2022-09-11T13:09:01.291Z,101006.84
2022-09-11T13:11:49.143Z,101014.47
2022-09-11T13:14:47.666Z,101004.72
2022-09-11T13:17:30.189Z,101000.25
2022-09-11T13:20:21.902Z,101003.38
2022-09-11T13:22:56.087Z,100996.84
2022-09-11T13:25:27.907Z,100990.28
2022-09-11T13:28:01.169Z,100999.06
2022-09-11T13:30:28.329Z,100993.75
2022-09-11T13:33:11.253Z,101001.03
2022-09-11T13:35:43.673Z,101006.22
2022-09-11T13:38:23.423Z,101000.22
2022-09-11T13:41:08.128Z,101000.84
2022-09-11T13:43:44.552Z,101002.28
2022-09-11T13:46:32.330Z,100998.09
2022-09-11T13:49:07.948Z,101002.44
2022-09-11T13:51:39.231Z,101001.72
2022-09-11T13:54:29.639Z,101009.38
2022-09-11T13:56:56.354Z,101007.13
2022-09-11T13:59:39.778Z,101015.81
2022-09-11T14:02:24.122Z,101020.50
2022-09-11T14:04:53.973Z,101017.28
2022-09-11T14:07:26.463Z,101016.84
2022-09-11T14:10:43.430Z,101020.88
2022-09-11T14:13:35.512Z,101020.84
2022-09-11T14:16:33.405Z,101016.88
2022-09-11T14:19:14.782Z,101016.16
2022-09-11T14:21:46.496Z,101015.34
2022-09-11T14:27:02.414Z,101021.13
2022-09-11T14:29:36.360Z,101017.59
2022-09-11T14:32:37.210Z,101011.56
2022-09-11T14:35:08.521Z,101007.47
2022-09-11T14:37:45.701Z,101011.63
2022-09-11T14:40:19.369Z,101008.50
2022-09-11T14:42:47.243Z,101009.78
2022-09-11T14:45:25.991Z,101015.50
2022-09-11T14:47:53.515Z,101022.63
2022-09-11T14:50:21.170Z,101021.47
2022-09-11T14:52:48.120Z,101015.66
2022-09-11T14:55:19.127Z,101015.50
2022-09-11T14:57:46.704Z,101013.66
2022-09-11T15:00:19.206Z,101014.66
2022-09-11T15:02:47.081Z,101019.66
2022-09-11T15:05:22.888Z,101016.31
2022-09-11T15:07:50.060Z,101020.63
2022-09-11T15:10:17.008Z,101019.13
2022-09-11T15:12:44.669Z,101018.81
2022-09-11T15:15:11.816Z,101013.31
2022-09-11T15:17:39.957Z,101020.31
2022-09-11T15:20:10.085Z,101015.16
2022-09-11T15:22:38.362Z,101023.13
2022-09-11T15:25:06.630Z,101022.66
2022-09-11T15:27:34.338Z,101026.63
2022-09-11T15:30:01.350Z,101031.28
2022-09-11T15:32:28.470Z,101026.13
2022-09-11T15:34:55.531Z,101038.22
2022-09-11T15:37:23.629Z,101034.91
2022-09-11T15:39:51.116Z,101031.28
2022-09-11T15:42:19.268Z,101025.63
2022-09-11T15:44:46.288Z,101019.84
2022-09-11T15:47:13.964Z,101026.81
2022-09-11T15:49:44.414Z,101029.94
2022-09-11T15:52:12.482Z,101032.91
2022-09-11T15:54:39.530Z,101038.88
2022-09-11T15:57:07.585Z,101032.59
2022-09-11T15:59:34.782Z,101034.44
2022-09-11T16:02:01.856Z,101031.94
2022-09-11T16:04:32.117Z,101029.28
2022-09-11T16:06:59.661Z,101034.91
2022-09-11T16:09:30.415Z,101039.88
2022-09-11T16:12:00.201Z,101036.84
2022-09-11T16:14:34.411Z,101047.09
2022-09-11T16:17:05.411Z,101044.97
2022-09-11T16:19:33.264Z,101037.69
2022-09-11T16:22:04.214Z,101026.16
2022-09-11T16:24:37.677Z,101032.78
2022-09-11T16:27:09.849Z,101035.84
2022-09-11T16:30:15.909Z,101034.59
2022-09-11T16:32:31.872Z,101032.78
2022-09-11T16:34:59.773Z,101036.94
2022-09-11T16:37:28.290Z,101032.47
2022-09-11T16:39:55.589Z,101038.31
2022-09-11T16:42:22.674Z,101032.84
2022-09-11T16:44:50.224Z,101038.00
2022-09-11T16:47:18.175Z,101041.97
2022-09-11T16:50:05.809Z,101043.28
2022-09-11T16:52:32.672Z,101042.44
2022-09-11T16:54:59.925Z,101041.06
2022-09-11T16:57:29.977Z,101051.56
2022-09-11T16:59:57.242Z,101040.09
2022-09-11T17:02:24.230Z,101038.28
2022-09-11T17:04:51.290Z,101036.38
2022-09-11T17:07:18.755Z,101042.66
2022-09-11T17:09:48.737Z,101049.44
2022-09-11T17:12:17.764Z,101046.06
2022-09-11T17:14:44.743Z,101041.31
2022-09-11T17:17:11.777Z,101041.69
2022-09-11T17:19:38.989Z,101055.34
2022-09-11T17:22:06.592Z,101047.06
2022-09-11T17:24:33.793Z,101050.00
2022-09-11T17:27:03.575Z,101049.69
2022-09-11T17:29:30.561Z,101052.25
2022-09-11T17:32:16.755Z,101051.28
2022-09-11T17:34:44.578Z,101055.38
2022-09-11T17:37:11.541Z,101067.56
2022-09-11T17:39:38.685Z,101054.81
2022-09-11T17:42:11.017Z,101051.03
2022-09-11T17:44:41.237Z,101059.19
2022-09-11T17:47:08.232Z,101060.53
2022-09-11T17:49:35.177Z,101060.13
2022-09-11T17:52:02.481Z,101068.44
2022-09-11T17:54:29.506Z,101065.66
2022-09-11T17:56:58.026Z,101064.50
2022-09-11T17:59:25.095Z,101059.16
2022-09-11T18:01:52.179Z,101065.97
2022-09-11T18:04:19.173Z,101065.13
2022-09-11T18:06:46.670Z,101062.97
2022-09-11T18:09:19.568Z,101059.06
2022-09-11T18:11:51.126Z,101055.44
2022-09-11T18:14:19.516Z,101055.72
2022-09-11T18:16:47.813Z,101052.38
2022-09-11T18:19:20.107Z,101045.91
2022-09-11T18:21:50.348Z,101050.84
2022-09-11T18:24:20.085Z,101055.13
2022-09-11T18:26:57.207Z,101050.81
2022-09-11T18:29:27.073Z,101055.25
2022-09-11T18:31:54.620Z,101063.53
2022-09-11T18:34:27.567Z,101059.16
2022-09-11T18:36:54.704Z,101062.50
2022-09-11T18:39:22.334Z,101063.97
2022-09-11T18:41:52.462Z,101069.81
2022-09-11T18:44:22.562Z,101068.75
2022-09-11T18:46:54.446Z,101067.78
2022-09-11T18:49:22.530Z,101069.44
2022-09-11T18:51:49.666Z,101077.31
2022-09-11T18:54:23.161Z,101070.50
2022-09-11T18:56:51.022Z,101083.81
2022-09-11T18:59:19.338Z,101081.03
2022-09-11T19:01:46.534Z,101080.47
2022-09-11T19:04:14.619Z,101085.75
2022-09-11T19:06:41.662Z,101083.13
2022-09-11T19:09:12.608Z,101082.84
2022-09-11T19:11:40.785Z,101085.53
2022-09-11T19:14:11.188Z,101083.81
2022-09-11T19:16:39.468Z,101088.47
2022-09-11T19:19:07.997Z,101085.56
2022-09-11T19:21:36.288Z,101085.56
2022-09-11T19:24:03.462Z,101093.88
2022-09-11T19:26:38.863Z,101091.53
2022-09-11T19:29:12.484Z,101097.94
2022-09-11T19:31:40.412Z,101095.41
2022-09-11T19:34:11.805Z,101107.91
2022-09-11T19:36:41.046Z,101105.97
2022-09-11T19:39:10.344Z,101109.16
2022-09-11T19:41:39.789Z,101109.59
2022-09-11T19:44:12.261Z,101110.84
2022-09-11T19:46:40.943Z,101116.38
2022-09-11T19:49:09.230Z,101118.34
2022-09-11T19:51:44.852Z,101111.13
2022-09-11T19:54:14.285Z,101117.09
2022-09-11T19:56:42.430Z,101123.22
2022-09-11T19:59:09.835Z,101116.69
2022-09-11T20:01:37.458Z,101115.88
2022-09-11T20:04:05.440Z,101118.66
2022-09-11T20:06:35.487Z,101119.75
2022-09-11T20:11:51.731Z,101124.34
2022-09-11T20:14:18.779Z,101126.00
2022-09-11T20:16:45.834Z,101121.44
2022-09-11T20:19:14.728Z,101121.41
2022-09-11T20:21:41.767Z,101126.03
2022-09-11T20:24:09.201Z,101131.97
2022-09-11T20:26:36.472Z,101122.03
2022-09-11T20:29:13.711Z,101124.97
2022-09-11T20:31:47.863Z,101124.09
2022-09-11T20:34:18.166Z,101127.88
2022-09-11T20:36:45.606Z,101129.38
2022-09-11T20:39:14.103Z,101127.19
2022-09-11T20:41:41.158Z,101131.88
2022-09-11T20:44:08.294Z,101125.22
2022-09-11T20:46:35.413Z,101128.41
2022-09-11T20:49:03.978Z,101123.97
2022-09-11T20:51:32.099Z,101121.31
2022-09-11T20:54:00.483Z,101124.91
2022-09-11T20:56:28.282Z,101124.41
2022-09-11T20:58:55.729Z,101130.44
2022-09-11T21:01:34.251Z,101120.84
2022-09-11T21:04:04.462Z,101126.47
2022-09-11T21:06:34.826Z,101123.97
2022-09-11T21:09:10.923Z,101125.03
2022-09-11T21:11:40.029Z,101126.50
2022-09-11T21:14:07.490Z,101122.59
2022-09-11T21:16:34.624Z,101126.81
2022-09-11T21:19:03.253Z,101125.97
2022-09-11T21:21:32.588Z,101132.06
2022-09-11T21:24:04.043Z,101130.41
2022-09-11T21:26:33.242Z,101132.59
2022-09-11T21:29:05.707Z,101126.63
2022-09-11T21:31:34.090Z,101124.78
2022-09-11T21:34:02.154Z,101128.00
2022-09-11T21:36:29.399Z,101121.44
2022-09-11T21:38:56.393Z,101132.28
2022-09-11T21:41:23.339Z,101124.53
2022-09-11T21:43:50.282Z,101116.63
2022-09-11T21:46:17.636Z,101114.69
2022-09-11T21:48:44.675Z,101113.06
2022-09-11T21:51:19.908Z,101103.91
2022-09-11T21:53:49.735Z,101123.91
2022-09-11T21:56:29.374Z,101124.44
2022-09-11T21:58:57.285Z,101121.19
2022-09-11T22:01:27.006Z,101125.59
2022-09-11T22:03:54.818Z,101128.78
2022-09-11T22:06:24.379Z,101124.81
2022-09-11T22:08:53.330Z,101121.19
2022-09-11T22:11:21.004Z,101127.06
2022-09-11T22:13:48.036Z,101122.63
2022-09-11T22:16:19.044Z,101125.34
2022-09-11T22:18:53.299Z,101118.91
2022-09-11T22:21:20.318Z,101125.03
2022-09-11T22:23:47.362Z,101117.19
2022-09-11T22:26:21.048Z,101129.50
2022-09-11T22:28:48.296Z,101127.81
2022-09-11T22:31:24.369Z,101127.53
2022-09-11T22:33:53.657Z,101135.41
2022-09-11T22:36:27.822Z,101128.31
2022-09-11T22:38:55.735Z,101130.22
2022-09-11T22:41:23.482Z,101126.81
2022-09-11T22:43:50.640Z,101127.34
2022-09-11T22:46:20.643Z,101123.88
2022-09-11T22:48:48.538Z,101132.78
2022-09-11T22:51:16.586Z,101129.19
2022-09-11T22:53:43.849Z,101130.13
2022-09-11T22:56:11.356Z,101131.78
2022-09-11T22:58:38.572Z,101132.06
2022-09-11T23:01:09.771Z,101137.75
2022-09-11T23:03:37.187Z,101130.28
2022-09-11T23:06:23.545Z,101126.31
2022-09-11T23:08:50.736Z,101129.44
2022-09-11T23:11:19.944Z,101125.03
2022-09-11T23:13:48.544Z,101127.72
2022-09-11T23:16:22.826Z,101126.31
2022-09-11T23:18:59.693Z,101129.56
2022-09-11T23:21:28.346Z,101125.75
2022-09-11T23:23:58.062Z,101125.75
2022-09-11T23:26:27.947Z,101120.97
2022-09-11T23:28:55.754Z,101126.50
2022-09-11T23:31:27.814Z,101127.00
2022-09-11T23:33:59.092Z,101124.44
2022-09-11T23:36:28.548Z,101126.78
2022-09-11T23:38:56.101Z,101116.59
2022-09-11T23:41:23.877Z,101120.53
2022-09-11T23:43:51.307Z,101124.59
2022-09-11T23:46:19.074Z,101120.41
2022-09-11T23:48:46.649Z,101117.22
2022-09-11T23:51:15.530Z,101111.69
2022-09-11T23:53:45.213Z,101108.78
2022-09-11T23:56:14.410Z,101110.47
2022-09-11T23:58:42.126Z,101107.44
